sensor_id;sensor_type;location;lat;lon;timestamp;temperature;humidity
21163;DHT22;10739;52.198;20.908;2023-05-07T00:00:49;5.80;99.90
21163;DHT22;10739;52.198;20.908;2023-05-07T00:03:15;5.80;99.90
21163;DHT22;10739;52.198;20.908;2023-05-07T00:05:41;5.80;99.90
21163;DHT22;10739;52.198;20.908;2023-05-07T00:08:08;5.80;99.90
21163;DHT22;10739;52.198;20.908;2023-05-07T00:10:34;5.70;99.90
21163;DHT22;10739;52.198;20.908;2023-05-07T00:13:00;5.70;99.90
21163;DHT22;10739;52.198;20.908;2023-05-07T00:15:26;5.70;99.90
21163;DHT22;10739;52.198;20.908;2023-05-07T00:17:53;5.70;99.90
21163;DHT22;10739;52.198;20.908;2023-05-07T00:20:20;5.70;99.90
21163;DHT22;10739;52.198;20.908;2023-05-07T00:22:46;5.70;99.90
21163;DHT22;10739;52.198;20.908;2023-05-07T00:25:12;5.70;99.90
21163;DHT22;10739;52.198;20.908;2023-05-07T00:27:39;5.70;99.90
21163;DHT22;10739;52.198;20.908;2023-05-07T00:30:05;5.70;99.90
21163;DHT22;10739;52.198;20.908;2023-05-07T00:32:32;5.60;99.90
21163;DHT22;10739;52.198;20.908;2023-05-07T00:34:59;5.70;99.90
21163;DHT22;10739;52.198;20.908;2023-05-07T00:37:25;5.70;99.90
21163;DHT22;10739;52.198;20.908;2023-05-07T00:39:52;5.70;99.90
21163;DHT22;10739;52.198;20.908;2023-05-07T00:42:25;5.70;99.90
21163;DHT22;10739;52.198;20.908;2023-05-07T00:44:52;5.60;99.90
21163;DHT22;10739;52.198;20.908;2023-05-07T00:47:25;5.60;99.90
21163;DHT22;10739;52.198;20.908;2023-05-07T00:49:57;5.60;99.90
21163;DHT22;10739;52.198;20.908;2023-05-07T00:52:25;5.60;99.90
21163;DHT22;10739;52.198;20.908;2023-05-07T00:54:53;5.60;99.90
21163;DHT22;10739;52.198;20.908;2023-05-07T00:57:20;5.60;99.90
21163;DHT22;10739;52.198;20.908;2023-05-07T00:59:48;5.60;99.90
21163;DHT22;10739;52.198;20.908;2023-05-07T01:02:16;5.50;99.90
21163;DHT22;10739;52.198;20.908;2023-05-07T01:04:42;5.60;99.90
21163;DHT22;10739;52.198;20.908;2023-05-07T01:07:09;5.60;99.90
21163;DHT22;10739;52.198;20.908;2023-05-07T01:09:36;5.60;99.90
21163;DHT22;10739;52.198;20.908;2023-05-07T01:12:03;5.50;99.90
21163;DHT22;10739;52.198;20.908;2023-05-07T01:14:30;5.60;99.90
21163;DHT22;10739;52.198;20.908;2023-05-07T01:16:58;5.50;99.90
21163;DHT22;10739;52.198;20.908;2023-05-07T01:19:25;5.50;99.90
21163;DHT22;10739;52.198;20.908;2023-05-07T01:22:02;5.50;99.90
21163;DHT22;10739;52.198;20.908;2023-05-07T01:24:32;5.50;99.90
21163;DHT22;10739;52.198;20.908;2023-05-07T01:26:59;5.40;99.90
21163;DHT22;10739;52.198;20.908;2023-05-07T01:29:27;5.50;99.90
21163;DHT22;10739;52.198;20.908;2023-05-07T01:31:56;5.40;99.90
21163;DHT22;10739;52.198;20.908;2023-05-07T01:34:25;5.40;99.90
21163;DHT22;10739;52.198;20.908;2023-05-07T01:36:56;5.40;99.90
21163;DHT22;10739;52.198;20.908;2023-05-07T01:39:26;5.50;99.90
21163;DHT22;10739;52.198;20.908;2023-05-07T01:41:56;5.50;99.90
21163;DHT22;10739;52.198;20.908;2023-05-07T01:44:25;5.50;99.90
21163;DHT22;10739;52.198;20.908;2023-05-07T01:46:53;5.40;99.90
21163;DHT22;10739;52.198;20.908;2023-05-07T01:49:20;5.40;99.90
21163;DHT22;10739;52.198;20.908;2023-05-07T01:51:47;5.40;99.90
21163;DHT22;10739;52.198;20.908;2023-05-07T01:54:14;5.40;99.90
21163;DHT22;10739;52.198;20.908;2023-05-07T01:56:40;5.40;99.90
21163;DHT22;10739;52.198;20.908;2023-05-07T01:59:06;5.30;99.90
21163;DHT22;10739;52.198;20.908;2023-05-07T02:01:33;5.30;99.90
21163;DHT22;10739;52.198;20.908;2023-05-07T02:03:59;5.30;99.90
21163;DHT22;10739;52.198;20.908;2023-05-07T02:06:25;5.30;99.90
21163;DHT22;10739;52.198;20.908;2023-05-07T02:08:52;5.30;99.90
21163;DHT22;10739;52.198;20.908;2023-05-07T02:11:18;5.30;99.90
21163;DHT22;10739;52.198;20.908;2023-05-07T02:13:44;5.40;99.90
21163;DHT22;10739;52.198;20.908;2023-05-07T02:16:10;5.30;99.90
21163;DHT22;10739;52.198;20.908;2023-05-07T02:18:36;5.30;99.90
21163;DHT22;10739;52.198;20.908;2023-05-07T02:21:03;5.30;99.90
21163;DHT22;10739;52.198;20.908;2023-05-07T02:23:29;5.30;99.90
21163;DHT22;10739;52.198;20.908;2023-05-07T02:25:56;5.40;99.90
21163;DHT22;10739;52.198;20.908;2023-05-07T02:28:22;5.30;99.90
21163;DHT22;10739;52.198;20.908;2023-05-07T02:30:48;5.30;99.90
21163;DHT22;10739;52.198;20.908;2023-05-07T02:33:15;5.30;99.90
21163;DHT22;10739;52.198;20.908;2023-05-07T02:35:41;5.30;99.90
21163;DHT22;10739;52.198;20.908;2023-05-07T02:38:07;5.30;99.90
21163;DHT22;10739;52.198;20.908;2023-05-07T02:40:36;5.30;99.90
21163;DHT22;10739;52.198;20.908;2023-05-07T02:43:06;5.30;99.90
21163;DHT22;10739;52.198;20.908;2023-05-07T02:45:32;5.30;99.90
21163;DHT22;10739;52.198;20.908;2023-05-07T02:47:59;5.30;99.90
21163;DHT22;10739;52.198;20.908;2023-05-07T02:50:25;5.30;99.90
21163;DHT22;10739;52.198;20.908;2023-05-07T02:52:52;5.30;99.90
21163;DHT22;10739;52.198;20.908;2023-05-07T02:55:19;5.30;99.90
21163;DHT22;10739;52.198;20.908;2023-05-07T02:57:45;5.30;99.90
21163;DHT22;10739;52.198;20.908;2023-05-07T03:00:16;5.30;99.90
21163;DHT22;10739;52.198;20.908;2023-05-07T03:02:46;5.30;99.90
21163;DHT22;10739;52.198;20.908;2023-05-07T03:05:13;5.30;99.90
21163;DHT22;10739;52.198;20.908;2023-05-07T03:07:39;5.30;99.90
21163;DHT22;10739;52.198;20.908;2023-05-07T03:10:09;5.20;99.90
21163;DHT22;10739;52.198;20.908;2023-05-07T03:12:36;5.30;99.90
21163;DHT22;10739;52.198;20.908;2023-05-07T03:15:02;5.20;99.90
21163;DHT22;10739;52.198;20.908;2023-05-07T03:17:29;5.20;99.90
21163;DHT22;10739;52.198;20.908;2023-05-07T03:19:55;5.20;99.90
21163;DHT22;10739;52.198;20.908;2023-05-07T03:22:21;5.20;99.90
21163;DHT22;10739;52.198;20.908;2023-05-07T03:24:47;5.20;99.90
21163;DHT22;10739;52.198;20.908;2023-05-07T03:27:13;5.20;99.90
21163;DHT22;10739;52.198;20.908;2023-05-07T03:29:40;5.20;99.90
21163;DHT22;10739;52.198;20.908;2023-05-07T03:32:06;5.20;99.90
21163;DHT22;10739;52.198;20.908;2023-05-07T03:34:32;5.20;99.90
21163;DHT22;10739;52.198;20.908;2023-05-07T03:36:59;5.20;99.90
21163;DHT22;10739;52.198;20.908;2023-05-07T03:39:25;5.30;99.90
21163;DHT22;10739;52.198;20.908;2023-05-07T03:41:52;5.30;99.90
21163;DHT22;10739;52.198;20.908;2023-05-07T03:44:18;5.30;99.90
21163;DHT22;10739;52.198;20.908;2023-05-07T03:46:44;5.30;99.90
21163;DHT22;10739;52.198;20.908;2023-05-07T03:49:11;5.40;99.90
21163;DHT22;10739;52.198;20.908;2023-05-07T03:51:37;5.40;99.90
21163;DHT22;10739;52.198;20.908;2023-05-07T03:54:03;5.40;99.90
21163;DHT22;10739;52.198;20.908;2023-05-07T03:56:30;5.30;99.90
21163;DHT22;10739;52.198;20.908;2023-05-07T03:58:57;5.40;99.90
21163;DHT22;10739;52.198;20.908;2023-05-07T04:01:23;5.40;99.90
21163;DHT22;10739;52.198;20.908;2023-05-07T04:03:49;5.40;99.90
21163;DHT22;10739;52.198;20.908;2023-05-07T04:06:18;5.40;99.90
21163;DHT22;10739;52.198;20.908;2023-05-07T04:08:45;5.50;99.90
21163;DHT22;10739;52.198;20.908;2023-05-07T04:11:11;5.50;99.90
21163;DHT22;10739;52.198;20.908;2023-05-07T04:13:37;5.50;99.90
21163;DHT22;10739;52.198;20.908;2023-05-07T04:16:05;5.50;99.90
21163;DHT22;10739;52.198;20.908;2023-05-07T04:18:32;5.50;99.90
21163;DHT22;10739;52.198;20.908;2023-05-07T04:20:58;5.50;99.90
21163;DHT22;10739;52.198;20.908;2023-05-07T04:23:24;5.50;99.90
21163;DHT22;10739;52.198;20.908;2023-05-07T04:25:51;5.50;99.90
21163;DHT22;10739;52.198;20.908;2023-05-07T04:28:17;5.50;99.90
21163;DHT22;10739;52.198;20.908;2023-05-07T04:30:44;5.40;99.90
21163;DHT22;10739;52.198;20.908;2023-05-07T04:33:10;5.50;99.90
21163;DHT22;10739;52.198;20.908;2023-05-07T04:35:37;5.60;99.90
21163;DHT22;10739;52.198;20.908;2023-05-07T04:38:03;5.60;99.90
21163;DHT22;10739;52.198;20.908;2023-05-07T04:40:29;5.60;99.90
21163;DHT22;10739;52.198;20.908;2023-05-07T04:42:56;5.60;99.90
21163;DHT22;10739;52.198;20.908;2023-05-07T04:45:22;5.60;99.90
21163;DHT22;10739;52.198;20.908;2023-05-07T04:47:48;5.60;99.90
21163;DHT22;10739;52.198;20.908;2023-05-07T04:50:14;5.60;99.90
21163;DHT22;10739;52.198;20.908;2023-05-07T04:52:41;5.60;99.90
21163;DHT22;10739;52.198;20.908;2023-05-07T04:55:07;5.60;99.90
21163;DHT22;10739;52.198;20.908;2023-05-07T04:57:34;5.60;99.90
21163;DHT22;10739;52.198;20.908;2023-05-07T05:00:00;5.60;99.90
21163;DHT22;10739;52.198;20.908;2023-05-07T05:02:27;5.70;99.90
21163;DHT22;10739;52.198;20.908;2023-05-07T05:04:53;5.70;99.90
21163;DHT22;10739;52.198;20.908;2023-05-07T05:07:19;5.70;99.90
21163;DHT22;10739;52.198;20.908;2023-05-07T05:09:45;5.70;99.90
21163;DHT22;10739;52.198;20.908;2023-05-07T05:12:12;5.80;99.90
21163;DHT22;10739;52.198;20.908;2023-05-07T05:14:38;5.80;99.90
21163;DHT22;10739;52.198;20.908;2023-05-07T05:17:05;5.80;99.90
21163;DHT22;10739;52.198;20.908;2023-05-07T05:19:31;5.90;99.90
21163;DHT22;10739;52.198;20.908;2023-05-07T05:21:57;5.90;99.90
21163;DHT22;10739;52.198;20.908;2023-05-07T05:24:23;6.00;99.90
21163;DHT22;10739;52.198;20.908;2023-05-07T05:26:51;6.00;99.90
21163;DHT22;10739;52.198;20.908;2023-05-07T05:29:19;6.10;99.90
21163;DHT22;10739;52.198;20.908;2023-05-07T05:31:45;6.20;99.90
21163;DHT22;10739;52.198;20.908;2023-05-07T05:34:12;6.20;99.90
21163;DHT22;10739;52.198;20.908;2023-05-07T05:36:38;6.20;99.90
21163;DHT22;10739;52.198;20.908;2023-05-07T05:39:04;6.20;99.90
21163;DHT22;10739;52.198;20.908;2023-05-07T05:41:31;6.30;99.90
21163;DHT22;10739;52.198;20.908;2023-05-07T05:43:58;6.30;99.90
21163;DHT22;10739;52.198;20.908;2023-05-07T05:46:24;6.40;99.90
21163;DHT22;10739;52.198;20.908;2023-05-07T05:48:50;6.40;99.90
21163;DHT22;10739;52.198;20.908;2023-05-07T05:51:17;6.40;99.90
21163;DHT22;10739;52.198;20.908;2023-05-07T05:53:43;6.50;99.90
21163;DHT22;10739;52.198;20.908;2023-05-07T05:56:09;6.50;99.90
21163;DHT22;10739;52.198;20.908;2023-05-07T05:58:36;6.50;99.90
21163;DHT22;10739;52.198;20.908;2023-05-07T06:01:02;6.60;99.90
21163;DHT22;10739;52.198;20.908;2023-05-07T06:03:29;6.60;99.90
21163;DHT22;10739;52.198;20.908;2023-05-07T06:05:55;6.60;99.90
21163;DHT22;10739;52.198;20.908;2023-05-07T06:08:21;6.70;99.90
21163;DHT22;10739;52.198;20.908;2023-05-07T06:10:47;6.70;99.90
21163;DHT22;10739;52.198;20.908;2023-05-07T06:13:17;6.80;99.90
21163;DHT22;10739;52.198;20.908;2023-05-07T06:15:43;6.80;99.90
21163;DHT22;10739;52.198;20.908;2023-05-07T06:18:10;6.70;99.90
21163;DHT22;10739;52.198;20.908;2023-05-07T06:20:36;6.80;99.90
21163;DHT22;10739;52.198;20.908;2023-05-07T06:23:02;6.80;99.90
21163;DHT22;10739;52.198;20.908;2023-05-07T06:25:28;6.80;99.90
21163;DHT22;10739;52.198;20.908;2023-05-07T06:27:55;6.90;99.90
21163;DHT22;10739;52.198;20.908;2023-05-07T06:30:21;6.90;99.90
21163;DHT22;10739;52.198;20.908;2023-05-07T06:32:47;7.00;99.90
21163;DHT22;10739;52.198;20.908;2023-05-07T06:35:13;7.10;99.90
21163;DHT22;10739;52.198;20.908;2023-05-07T06:37:41;7.20;99.90
21163;DHT22;10739;52.198;20.908;2023-05-07T06:40:09;7.40;99.90
21163;DHT22;10739;52.198;20.908;2023-05-07T06:42:38;7.40;99.90
21163;DHT22;10739;52.198;20.908;2023-05-07T06:45:04;7.30;99.90
21163;DHT22;10739;52.198;20.908;2023-05-07T06:47:31;7.20;99.90
21163;DHT22;10739;52.198;20.908;2023-05-07T06:49:58;7.20;99.90
21163;DHT22;10739;52.198;20.908;2023-05-07T06:52:24;7.30;99.90
21163;DHT22;10739;52.198;20.908;2023-05-07T06:54:51;7.30;99.90
21163;DHT22;10739;52.198;20.908;2023-05-07T06:57:20;7.30;99.90
21163;DHT22;10739;52.198;20.908;2023-05-07T06:59:46;7.40;99.90
21163;DHT22;10739;52.198;20.908;2023-05-07T07:02:15;7.40;99.90
21163;DHT22;10739;52.198;20.908;2023-05-07T07:04:41;7.50;99.90
21163;DHT22;10739;52.198;20.908;2023-05-07T07:07:08;7.60;99.90
21163;DHT22;10739;52.198;20.908;2023-05-07T07:09:34;7.70;99.90
21163;DHT22;10739;52.198;20.908;2023-05-07T07:12:00;7.80;99.90
21163;DHT22;10739;52.198;20.908;2023-05-07T07:14:27;7.90;99.90
21163;DHT22;10739;52.198;20.908;2023-05-07T07:16:53;7.80;99.90
21163;DHT22;10739;52.198;20.908;2023-05-07T07:19:19;7.90;99.90
21163;DHT22;10739;52.198;20.908;2023-05-07T07:21:46;8.00;99.90
21163;DHT22;10739;52.198;20.908;2023-05-07T07:24:13;8.10;99.90
21163;DHT22;10739;52.198;20.908;2023-05-07T07:26:45;8.00;99.90
21163;DHT22;10739;52.198;20.908;2023-05-07T07:29:11;8.10;99.90
21163;DHT22;10739;52.198;20.908;2023-05-07T07:31:38;8.30;99.90
21163;DHT22;10739;52.198;20.908;2023-05-07T07:34:04;8.40;99.90
21163;DHT22;10739;52.198;20.908;2023-05-07T07:36:31;8.50;99.90
21163;DHT22;10739;52.198;20.908;2023-05-07T07:38:57;8.40;99.90
21163;DHT22;10739;52.198;20.908;2023-05-07T07:41:23;8.30;99.90
21163;DHT22;10739;52.198;20.908;2023-05-07T07:43:50;8.20;99.90
21163;DHT22;10739;52.198;20.908;2023-05-07T07:46:16;8.20;99.90
21163;DHT22;10739;52.198;20.908;2023-05-07T07:48:43;8.20;99.90
21163;DHT22;10739;52.198;20.908;2023-05-07T07:51:09;8.20;99.90
21163;DHT22;10739;52.198;20.908;2023-05-07T07:53:36;8.30;99.90
21163;DHT22;10739;52.198;20.908;2023-05-07T07:56:05;8.30;99.90
21163;DHT22;10739;52.198;20.908;2023-05-07T07:58:32;8.20;99.90
21163;DHT22;10739;52.198;20.908;2023-05-07T08:00:58;8.20;99.90
21163;DHT22;10739;52.198;20.908;2023-05-07T08:03:24;8.30;99.90
21163;DHT22;10739;52.198;20.908;2023-05-07T08:05:51;8.40;99.90
21163;DHT22;10739;52.198;20.908;2023-05-07T08:08:17;8.40;99.90
21163;DHT22;10739;52.198;20.908;2023-05-07T08:10:43;8.30;99.90
21163;DHT22;10739;52.198;20.908;2023-05-07T08:13:10;8.30;99.90
21163;DHT22;10739;52.198;20.908;2023-05-07T08:15:36;8.40;99.90
21163;DHT22;10739;52.198;20.908;2023-05-07T08:18:02;8.50;99.90
21163;DHT22;10739;52.198;20.908;2023-05-07T08:20:29;8.60;99.90
21163;DHT22;10739;52.198;20.908;2023-05-07T08:22:55;8.60;99.90
21163;DHT22;10739;52.198;20.908;2023-05-07T08:25:21;8.80;99.90
21163;DHT22;10739;52.198;20.908;2023-05-07T08:27:48;8.70;99.90
21163;DHT22;10739;52.198;20.908;2023-05-07T08:30:14;8.90;99.90
21163;DHT22;10739;52.198;20.908;2023-05-07T08:32:41;9.20;99.90
21163;DHT22;10739;52.198;20.908;2023-05-07T08:35:07;9.30;99.90
21163;DHT22;10739;52.198;20.908;2023-05-07T08:37:34;9.20;99.90
21163;DHT22;10739;52.198;20.908;2023-05-07T08:40:00;9.00;99.90
21163;DHT22;10739;52.198;20.908;2023-05-07T08:42:28;9.20;99.90
21163;DHT22;10739;52.198;20.908;2023-05-07T08:44:57;9.60;99.90
21163;DHT22;10739;52.198;20.908;2023-05-07T08:47:29;9.90;99.90
21163;DHT22;10739;52.198;20.908;2023-05-07T08:50:01;10.10;99.90
21163;DHT22;10739;52.198;20.908;2023-05-07T08:52:28;10.10;99.90
21163;DHT22;10739;52.198;20.908;2023-05-07T08:54:54;10.00;99.90
21163;DHT22;10739;52.198;20.908;2023-05-07T08:57:20;10.00;99.90
21163;DHT22;10739;52.198;20.908;2023-05-07T08:59:47;10.20;99.90
21163;DHT22;10739;52.198;20.908;2023-05-07T09:02:13;10.30;99.90
21163;DHT22;10739;52.198;20.908;2023-05-07T09:04:40;10.30;99.90
21163;DHT22;10739;52.198;20.908;2023-05-07T09:07:06;10.30;99.90
21163;DHT22;10739;52.198;20.908;2023-05-07T09:09:33;10.10;99.90
21163;DHT22;10739;52.198;20.908;2023-05-07T09:11:59;9.70;99.90
21163;DHT22;10739;52.198;20.908;2023-05-07T09:14:26;9.60;99.90
21163;DHT22;10739;52.198;20.908;2023-05-07T09:16:52;9.70;99.90
21163;DHT22;10739;52.198;20.908;2023-05-07T09:19:26;9.50;99.90
21163;DHT22;10739;52.198;20.908;2023-05-07T09:22:03;9.40;99.90
21163;DHT22;10739;52.198;20.908;2023-05-07T09:24:32;9.30;99.90
21163;DHT22;10739;52.198;20.908;2023-05-07T09:27:04;9.30;99.90
21163;DHT22;10739;52.198;20.908;2023-05-07T09:32:47;9.40;99.90
21163;DHT22;10739;52.198;20.908;2023-05-07T09:35:17;9.50;99.90
21163;DHT22;10739;52.198;20.908;2023-05-07T09:37:43;9.40;99.90
21163;DHT22;10739;52.198;20.908;2023-05-07T09:40:30;9.40;99.90
21163;DHT22;10739;52.198;20.908;2023-05-07T09:43:12;9.40;99.90
21163;DHT22;10739;52.198;20.908;2023-05-07T09:45:41;9.50;99.90
21163;DHT22;10739;52.198;20.908;2023-05-07T09:48:07;9.70;99.90
21163;DHT22;10739;52.198;20.908;2023-05-07T09:50:49;9.80;99.90
21163;DHT22;10739;52.198;20.908;2023-05-07T09:53:17;9.90;99.90
21163;DHT22;10739;52.198;20.908;2023-05-07T09:55:45;10.40;99.90
21163;DHT22;10739;52.198;20.908;2023-05-07T09:58:12;10.20;99.90
21163;DHT22;10739;52.198;20.908;2023-05-07T10:00:42;10.10;99.90
21163;DHT22;10739;52.198;20.908;2023-05-07T10:03:09;10.00;99.90
21163;DHT22;10739;52.198;20.908;2023-05-07T10:05:39;9.90;99.90
21163;DHT22;10739;52.198;20.908;2023-05-07T10:08:06;9.60;99.90
21163;DHT22;10739;52.198;20.908;2023-05-07T10:10:35;9.60;99.90
21163;DHT22;10739;52.198;20.908;2023-05-07T10:13:02;9.60;99.90
21163;DHT22;10739;52.198;20.908;2023-05-07T10:15:31;9.50;99.90
21163;DHT22;10739;52.198;20.908;2023-05-07T10:17:58;9.50;99.90
21163;DHT22;10739;52.198;20.908;2023-05-07T10:20:25;9.60;99.90
21163;DHT22;10739;52.198;20.908;2023-05-07T10:22:56;10.20;99.90
21163;DHT22;10739;52.198;20.908;2023-05-07T10:25:33;10.60;99.90
21163;DHT22;10739;52.198;20.908;2023-05-07T10:28:05;10.90;99.90
21163;DHT22;10739;52.198;20.908;2023-05-07T10:33:31;10.10;99.90
21163;DHT22;10739;52.198;20.908;2023-05-07T10:36:01;9.80;99.90
21163;DHT22;10739;52.198;20.908;2023-05-07T10:38:30;9.60;99.90
21163;DHT22;10739;52.198;20.908;2023-05-07T10:40:57;9.60;99.90
21163;DHT22;10739;52.198;20.908;2023-05-07T10:43:23;9.60;99.90
21163;DHT22;10739;52.198;20.908;2023-05-07T10:46:10;9.60;99.90
21163;DHT22;10739;52.198;20.908;2023-05-07T10:51:30;9.70;99.90
21163;DHT22;10739;52.198;20.908;2023-05-07T10:56:43;9.60;99.90
21163;DHT22;10739;52.198;20.908;2023-05-07T11:02:01;9.70;99.90
21163;DHT22;10739;52.198;20.908;2023-05-07T11:04:32;9.90;99.90
21163;DHT22;10739;52.198;20.908;2023-05-07T11:07:31;10.00;99.90
21163;DHT22;10739;52.198;20.908;2023-05-07T11:10:02;10.00;99.90
21163;DHT22;10739;52.198;20.908;2023-05-07T11:17:29;9.90;99.90
21163;DHT22;10739;52.198;20.908;2023-05-07T11:20:01;9.90;99.90
21163;DHT22;10739;52.198;20.908;2023-05-07T11:25:01;9.80;99.90
21163;DHT22;10739;52.198;20.908;2023-05-07T11:27:29;10.40;99.90
21163;DHT22;10739;52.198;20.908;2023-05-07T11:29:56;10.70;99.90
21163;DHT22;10739;52.198;20.908;2023-05-07T11:32:30;11.10;99.90
21163;DHT22;10739;52.198;20.908;2023-05-07T11:34:59;11.30;99.90
21163;DHT22;10739;52.198;20.908;2023-05-07T11:37:27;11.20;99.90
21163;DHT22;10739;52.198;20.908;2023-05-07T11:40:21;11.20;99.90
21163;DHT22;10739;52.198;20.908;2023-05-07T11:42:48;11.20;99.90
21163;DHT22;10739;52.198;20.908;2023-05-07T11:45:23;11.00;99.90
21163;DHT22;10739;52.198;20.908;2023-05-07T11:47:52;11.20;99.90
21163;DHT22;10739;52.198;20.908;2023-05-07T11:50:18;11.30;99.90
21163;DHT22;10739;52.198;20.908;2023-05-07T11:52:51;11.50;99.90
21163;DHT22;10739;52.198;20.908;2023-05-07T11:55:18;11.40;99.90
21163;DHT22;10739;52.198;20.908;2023-05-07T11:57:45;11.20;99.90
21163;DHT22;10739;52.198;20.908;2023-05-07T12:00:16;11.10;99.90
21163;DHT22;10739;52.198;20.908;2023-05-07T12:02:43;11.10;99.90
21163;DHT22;10739;52.198;20.908;2023-05-07T12:05:11;11.40;99.90
21163;DHT22;10739;52.198;20.908;2023-05-07T12:07:38;11.30;99.90
21163;DHT22;10739;52.198;20.908;2023-05-07T12:10:05;11.10;99.90
21163;DHT22;10739;52.198;20.908;2023-05-07T12:12:38;11.10;99.90
21163;DHT22;10739;52.198;20.908;2023-05-07T12:15:08;11.30;99.90
21163;DHT22;10739;52.198;20.908;2023-05-07T12:17:34;11.20;99.90
21163;DHT22;10739;52.198;20.908;2023-05-07T12:20:01;11.10;99.90
21163;DHT22;10739;52.198;20.908;2023-05-07T12:22:28;10.90;99.90
21163;DHT22;10739;52.198;20.908;2023-05-07T12:24:58;10.90;99.90
21163;DHT22;10739;52.198;20.908;2023-05-07T12:27:26;11.20;99.90
21163;DHT22;10739;52.198;20.908;2023-05-07T12:29:52;11.10;99.90
21163;DHT22;10739;52.198;20.908;2023-05-07T12:32:20;11.10;99.90
21163;DHT22;10739;52.198;20.908;2023-05-07T12:34:50;10.90;99.90
21163;DHT22;10739;52.198;20.908;2023-05-07T12:37:25;10.80;99.90
21163;DHT22;10739;52.198;20.908;2023-05-07T12:40:09;10.80;99.90
21163;DHT22;10739;52.198;20.908;2023-05-07T12:42:37;10.90;99.90
21163;DHT22;10739;52.198;20.908;2023-05-07T12:45:10;11.00;99.90
21163;DHT22;10739;52.198;20.908;2023-05-07T12:47:37;10.90;99.90
21163;DHT22;10739;52.198;20.908;2023-05-07T12:50:07;11.00;99.90
21163;DHT22;10739;52.198;20.908;2023-05-07T12:52:34;11.20;99.90
21163;DHT22;10739;52.198;20.908;2023-05-07T12:55:07;11.30;99.90
21163;DHT22;10739;52.198;20.908;2023-05-07T12:57:38;11.50;99.90
21163;DHT22;10739;52.198;20.908;2023-05-07T13:00:10;11.60;99.90
21163;DHT22;10739;52.198;20.908;2023-05-07T13:02:41;11.60;99.90
21163;DHT22;10739;52.198;20.908;2023-05-07T13:05:10;11.50;99.90
21163;DHT22;10739;52.198;20.908;2023-05-07T13:07:37;11.90;99.90
21163;DHT22;10739;52.198;20.908;2023-05-07T13:10:07;12.70;99.60
21163;DHT22;10739;52.198;20.908;2023-05-07T13:12:35;14.00;98.80
21163;DHT22;10739;52.198;20.908;2023-05-07T13:15:02;13.70;96.60
21163;DHT22;10739;52.198;20.908;2023-05-07T13:17:28;13.00;96.40
21163;DHT22;10739;52.198;20.908;2023-05-07T13:19:57;12.50;96.70
21163;DHT22;10739;52.198;20.908;2023-05-07T13:22:23;11.90;98.20
21163;DHT22;10739;52.198;20.908;2023-05-07T13:24:49;11.80;98.80
21163;DHT22;10739;52.198;20.908;2023-05-07T13:27:16;11.70;99.20
21163;DHT22;10739;52.198;20.908;2023-05-07T13:29:42;11.80;99.70
21163;DHT22;10739;52.198;20.908;2023-05-07T13:32:08;11.90;99.70
21163;DHT22;10739;52.198;20.908;2023-05-07T13:34:35;12.20;99.90
21163;DHT22;10739;52.198;20.908;2023-05-07T13:37:01;12.30;99.50
21163;DHT22;10739;52.198;20.908;2023-05-07T13:39:27;12.10;99.30
21163;DHT22;10739;52.198;20.908;2023-05-07T13:41:53;12.00;99.60
21163;DHT22;10739;52.198;20.908;2023-05-07T13:44:20;12.30;98.90
21163;DHT22;10739;52.198;20.908;2023-05-07T13:46:46;12.80;98.60
21163;DHT22;10739;52.198;20.908;2023-05-07T13:49:12;13.40;97.30
21163;DHT22;10739;52.198;20.908;2023-05-07T13:51:39;13.40;96.70
21163;DHT22;10739;52.198;20.908;2023-05-07T13:54:05;13.20;97.00
21163;DHT22;10739;52.198;20.908;2023-05-07T13:56:31;13.00;97.90
21163;DHT22;10739;52.198;20.908;2023-05-07T13:59:01;12.10;98.90
21163;DHT22;10739;52.198;20.908;2023-05-07T14:01:27;12.50;96.70
21163;DHT22;10739;52.198;20.908;2023-05-07T14:03:55;13.40;95.40
21163;DHT22;10739;52.198;20.908;2023-05-07T14:06:22;14.40;95.60
21163;DHT22;10739;52.198;20.908;2023-05-07T14:08:48;15.20;96.00
21163;DHT22;10739;52.198;20.908;2023-05-07T14:11:14;15.30;92.00
21163;DHT22;10739;52.198;20.908;2023-05-07T14:13:41;14.70;93.00
21163;DHT22;10739;52.198;20.908;2023-05-07T14:16:07;14.50;92.80
21163;DHT22;10739;52.198;20.908;2023-05-07T14:18:33;14.80;91.70
21163;DHT22;10739;52.198;20.908;2023-05-07T14:21:01;14.80;91.40
21163;DHT22;10739;52.198;20.908;2023-05-07T14:23:27;14.40;91.00
21163;DHT22;10739;52.198;20.908;2023-05-07T14:25:53;14.10;92.20
21163;DHT22;10739;52.198;20.908;2023-05-07T14:28:20;13.70;92.70
21163;DHT22;10739;52.198;20.908;2023-05-07T14:30:48;13.20;92.80
21163;DHT22;10739;52.198;20.908;2023-05-07T14:33:14;13.60;93.00
21163;DHT22;10739;52.198;20.908;2023-05-07T14:35:40;14.00;92.90
21163;DHT22;10739;52.198;20.908;2023-05-07T14:38:07;14.00;91.40
21163;DHT22;10739;52.198;20.908;2023-05-07T14:40:33;14.40;91.30
21163;DHT22;10739;52.198;20.908;2023-05-07T14:42:59;14.70;89.80
21163;DHT22;10739;52.198;20.908;2023-05-07T14:45:26;13.60;89.10
21163;DHT22;10739;52.198;20.908;2023-05-07T14:47:53;12.90;92.50
21163;DHT22;10739;52.198;20.908;2023-05-07T14:50:19;13.00;92.30
21163;DHT22;10739;52.198;20.908;2023-05-07T14:52:45;13.80;91.80
21163;DHT22;10739;52.198;20.908;2023-05-07T14:55:12;14.60;90.50
21163;DHT22;10739;52.198;20.908;2023-05-07T14:57:38;14.70;88.80
21163;DHT22;10739;52.198;20.908;2023-05-07T15:00:05;14.80;85.70
21163;DHT22;10739;52.198;20.908;2023-05-07T15:02:33;14.10;88.20
21163;DHT22;10739;52.198;20.908;2023-05-07T15:05:00;14.20;90.50
21163;DHT22;10739;52.198;20.908;2023-05-07T15:07:29;14.20;88.40
21163;DHT22;10739;52.198;20.908;2023-05-07T15:09:58;13.90;87.80
21163;DHT22;10739;52.198;20.908;2023-05-07T15:12:24;13.30;90.20
21163;DHT22;10739;52.198;20.908;2023-05-07T15:14:50;12.80;92.90
21163;DHT22;10739;52.198;20.908;2023-05-07T15:17:17;12.20;93.10
21163;DHT22;10739;52.198;20.908;2023-05-07T15:19:43;12.10;92.00
21163;DHT22;10739;52.198;20.908;2023-05-07T15:22:09;11.90;92.60
21163;DHT22;10739;52.198;20.908;2023-05-07T15:24:36;11.80;92.80
21163;DHT22;10739;52.198;20.908;2023-05-07T15:27:02;11.70;93.40
21163;DHT22;10739;52.198;20.908;2023-05-07T15:29:28;11.70;94.20
21163;DHT22;10739;52.198;20.908;2023-05-07T15:31:55;11.70;93.50
21163;DHT22;10739;52.198;20.908;2023-05-07T15:34:22;11.70;93.20
21163;DHT22;10739;52.198;20.908;2023-05-07T15:36:50;11.70;93.00
21163;DHT22;10739;52.198;20.908;2023-05-07T15:39:16;11.70;91.80
21163;DHT22;10739;52.198;20.908;2023-05-07T15:41:45;11.70;93.30
21163;DHT22;10739;52.198;20.908;2023-05-07T15:44:12;11.60;92.10
21163;DHT22;10739;52.198;20.908;2023-05-07T15:46:38;11.60;92.90
21163;DHT22;10739;52.198;20.908;2023-05-07T15:49:04;11.60;93.90